createdAt,value
2023-03-26T00:00:04.797Z,49.2793
2023-03-26T00:01:06.431Z,49.3178
2023-03-26T00:02:08.255Z,49.2542
2023-03-26T00:03:09.703Z,49.3368
2023-03-26T00:04:11.468Z,49.5071
2023-03-26T00:05:13.102Z,49.5040
2023-03-26T00:06:14.664Z,49.5973
2023-03-26T00:07:16.403Z,49.5314
2023-03-26T00:08:18.068Z,49.5252
2023-03-26T00:09:19.578Z,49.5924
2023-03-26T00:10:21.365Z,49.4206
2023-03-26T00:11:22.937Z,49.5757
2023-03-26T00:12:24.584Z,49.6170
2023-03-26T00:13:26.231Z,49.5710
2023-03-26T00:14:27.862Z,49.5986
2023-03-26T00:15:29.484Z,49.4977
2023-03-26T00:16:31.197Z,49.6074
2023-03-26T00:17:32.830Z,49.6155
2023-03-26T00:18:34.504Z,49.7071
2023-03-26T00:19:36.090Z,49.7320
2023-03-26T00:20:37.740Z,49.6865
2023-03-26T00:21:39.394Z,49.6108
2023-03-26T00:22:41.109Z,49.6613
2023-03-26T00:23:42.671Z,49.6047
2023-03-26T00:24:44.339Z,49.6001
2023-03-26T00:25:46.771Z,49.6274
2023-03-26T00:26:47.648Z,49.5939
2023-03-26T00:27:49.294Z,49.5782
2023-03-26T00:28:50.953Z,49.4697
2023-03-26T00:29:52.563Z,49.5935
2023-03-26T00:30:54.279Z,49.6221
2023-03-26T00:31:55.871Z,49.4878
2023-03-26T00:32:57.570Z,49.3725
2023-03-26T00:33:59.161Z,49.5296
2023-03-26T00:35:00.845Z,49.4571
2023-03-26T00:36:04.397Z,49.2999
2023-03-26T00:37:04.125Z,49.3561
2023-03-26T00:38:05.776Z,49.3205
2023-03-26T00:39:07.417Z,49.3686
2023-03-26T00:40:09.040Z,49.2990
2023-03-26T00:41:10.712Z,49.3443
2023-03-26T00:42:12.342Z,49.3826
2023-03-26T00:43:14.019Z,49.3724
2023-03-26T00:44:15.643Z,49.4371
2023-03-26T00:45:17.304Z,49.3919
2023-03-26T00:46:18.998Z,49.1638
2023-03-26T00:47:20.761Z,49.1953
2023-03-26T00:48:28.846Z,49.3277
2023-03-26T00:49:23.890Z,49.2247
2023-03-26T00:50:25.529Z,49.2442
2023-03-26T00:51:27.218Z,49.3046
2023-03-26T00:52:28.833Z,49.0826
2023-03-26T00:53:30.667Z,49.0493
2023-03-26T00:54:32.142Z,49.0542
2023-03-26T00:55:33.805Z,49.0777
2023-03-26T00:56:35.476Z,49.0660
2023-03-26T00:57:37.185Z,49.2767
2023-03-26T00:58:38.751Z,49.1544
2023-03-26T00:59:40.403Z,49.0220
2023-03-26T01:00:42.034Z,49.0506
2023-03-26T01:01:43.726Z,49.1856
2023-03-26T01:02:45.435Z,49.0491
2023-03-26T01:04:04.830Z,49.2056
2023-03-26T01:04:48.759Z,49.1776
2023-03-26T01:05:50.303Z,48.9454
2023-03-26T01:06:51.916Z,48.9133
2023-03-26T01:07:53.590Z,49.0921
2023-03-26T01:08:55.251Z,49.1101
2023-03-26T01:09:56.871Z,49.0487
2023-03-26T01:10:58.514Z,49.0379
2023-03-26T01:12:00.181Z,48.9233
2023-03-26T01:13:01.812Z,48.8747
2023-03-26T01:14:03.502Z,48.9001
2023-03-26T01:15:05.124Z,48.8813
2023-03-26T01:16:06.822Z,48.8184
2023-03-26T01:17:08.405Z,48.8171
2023-03-26T01:18:10.092Z,48.8696
2023-03-26T01:19:11.721Z,48.8537
2023-03-26T01:20:13.376Z,48.8250
2023-03-26T01:21:15.000Z,48.7478
2023-03-26T01:22:16.687Z,48.7068
2023-03-26T01:23:18.326Z,48.7516
2023-03-26T01:24:20.001Z,48.7052
2023-03-26T01:25:21.604Z,48.7451
2023-03-26T01:26:23.261Z,48.6704
2023-03-26T01:27:24.902Z,48.6097
2023-03-26T01:28:26.573Z,48.6415
2023-03-26T01:29:28.242Z,48.6116
2023-03-26T01:30:29.869Z,48.7003
2023-03-26T01:31:31.483Z,48.6758
2023-03-26T01:32:33.321Z,48.6349
2023-03-26T01:33:34.855Z,48.6428
2023-03-26T01:34:36.502Z,48.7369
2023-03-26T01:35:38.118Z,48.8036
2023-03-26T01:36:39.765Z,48.7444
2023-03-26T01:37:41.381Z,48.6694
2023-03-26T01:38:43.060Z,48.5938
2023-03-26T01:39:44.713Z,48.5661
2023-03-26T01:40:46.351Z,48.5436
2023-03-26T01:41:47.986Z,48.6402
2023-03-26T01:42:49.661Z,48.6509
2023-03-26T01:43:51.289Z,48.5377
2023-03-26T01:44:52.978Z,48.5404
2023-03-26T01:45:54.738Z,48.5592
2023-03-26T01:46:56.339Z,48.5269
2023-03-26T01:47:57.905Z,48.4857
2023-03-26T01:48:59.532Z,48.5431
2023-03-26T01:50:01.207Z,48.5349
2023-03-26T01:51:02.838Z,48.4954
2023-03-26T01:52:04.470Z,48.5147
2023-03-26T01:53:06.143Z,48.4731
2023-03-26T01:54:07.840Z,48.4935
2023-03-26T01:55:09.533Z,48.4255
2023-03-26T01:56:11.172Z,48.3741
2023-03-26T01:57:12.822Z,48.4232
2023-03-26T01:58:14.439Z,48.4977
2023-03-26T01:59:16.117Z,48.4720
2023-03-26T02:00:17.777Z,48.4634
2023-03-26T02:01:19.481Z,48.4548
2023-03-26T02:02:21.173Z,48.4340
2023-03-26T02:03:22.854Z,48.4631
2023-03-26T02:04:24.362Z,48.3823
2023-03-26T02:05:26.063Z,48.3337
2023-03-26T02:06:27.652Z,48.4205
2023-03-26T02:07:29.328Z,48.4159
2023-03-26T02:08:30.963Z,48.3944
2023-03-26T02:09:32.614Z,48.3922
2023-03-26T02:10:34.270Z,48.3773
2023-03-26T02:11:36.224Z,48.3393
2023-03-26T02:12:37.544Z,48.3435
2023-03-26T02:13:39.217Z,48.3462
2023-03-26T02:14:40.862Z,48.3644
2023-03-26T02:15:42.541Z,48.3477
2023-03-26T02:16:44.166Z,48.3181
2023-03-26T02:17:45.827Z,48.3332
2023-03-26T02:18:47.498Z,48.2718
2023-03-26T02:19:49.125Z,48.2824
2023-03-26T02:20:50.773Z,48.3861
2023-03-26T02:21:52.408Z,48.4434
2023-03-26T02:22:54.043Z,48.4326
2023-03-26T02:23:55.715Z,48.4580
2023-03-26T02:24:57.349Z,48.4130
2023-03-26T02:25:59.043Z,48.3418
2023-03-26T02:27:00.642Z,48.3974
2023-03-26T02:28:02.304Z,48.3485
2023-03-26T02:29:03.941Z,48.3349
2023-03-26T02:30:05.606Z,48.3748
2023-03-26T02:31:07.274Z,48.3481
2023-03-26T02:32:08.909Z,48.3355
2023-03-26T02:33:10.591Z,48.3066
2023-03-26T02:34:12.220Z,48.3967
2023-03-26T02:35:13.894Z,48.5248
2023-03-26T02:36:15.601Z,48.5145
2023-03-26T02:37:17.145Z,48.4497
2023-03-26T02:38:18.775Z,48.3853
2023-03-26T02:39:20.445Z,48.3745
2023-03-26T02:40:22.096Z,48.3732
2023-03-26T02:41:23.749Z,48.4680
2023-03-26T02:42:25.385Z,48.6319
2023-03-26T02:43:27.019Z,48.8503
2023-03-26T02:44:28.680Z,49.0220
2023-03-26T02:45:30.315Z,49.1481
2023-03-26T02:46:32.054Z,49.3043
2023-03-26T02:47:33.692Z,49.2999
2023-03-26T02:48:35.271Z,49.6184
2023-03-26T02:49:36.899Z,49.5181
2023-03-26T02:50:38.578Z,49.7257
2023-03-26T02:51:40.210Z,49.4557
2023-03-26T02:52:41.871Z,49.6528
2023-03-26T02:53:43.496Z,49.7668
2023-03-26T02:54:45.154Z,49.9033
2023-03-26T02:55:46.792Z,50.0757
2023-03-26T02:56:48.505Z,49.7765
2023-03-26T02:57:50.096Z,49.9457
2023-03-26T02:58:51.757Z,49.7861
2023-03-26T02:59:53.391Z,49.6016
2023-03-26T03:00:55.143Z,49.4929
2023-03-26T03:01:56.759Z,49.4530
2023-03-26T03:02:58.443Z,49.4725
2023-03-26T03:03:59.984Z,49.4779
2023-03-26T03:05:01.765Z,49.4807
2023-03-26T03:06:03.269Z,49.3913
2023-03-26T03:07:05.069Z,49.3946
2023-03-26T03:08:06.643Z,49.4130
2023-03-26T03:09:08.284Z,49.4209
2023-03-26T03:10:09.973Z,49.4181
2023-03-26T03:11:11.592Z,49.4171
2023-03-26T03:12:13.299Z,49.6175
2023-03-26T03:13:14.941Z,49.8994
2023-03-26T03:14:16.511Z,49.9089
2023-03-26T03:15:18.247Z,50.0038
2023-03-26T03:16:19.921Z,49.9883
2023-03-26T03:17:21.559Z,49.9243
2023-03-26T03:18:23.194Z,49.7554
2023-03-26T03:19:24.745Z,49.6779
2023-03-26T03:20:26.363Z,49.6098
2023-03-26T03:21:28.037Z,49.5782
2023-03-26T03:22:29.689Z,49.5952
2023-03-26T03:23:31.319Z,49.6131
2023-03-26T03:24:32.961Z,49.5899
2023-03-26T03:25:34.636Z,49.5826
2023-03-26T03:26:36.253Z,49.5737
2023-03-26T03:27:37.949Z,49.5587
2023-03-26T03:28:39.566Z,49.5452
2023-03-26T03:29:41.212Z,49.5395
2023-03-26T03:30:42.897Z,49.5109
2023-03-26T03:31:44.520Z,49.4833
2023-03-26T03:32:46.238Z,49.4482
2023-03-26T03:33:47.819Z,49.4576
2023-03-26T03:34:49.438Z,49.4945
2023-03-26T03:35:51.113Z,49.5033
2023-03-26T03:36:52.726Z,49.4975
2023-03-26T03:37:54.415Z,49.5117
2023-03-26T03:38:56.041Z,49.5208
2023-03-26T03:39:57.694Z,49.5352
2023-03-26T03:40:59.324Z,49.5089
2023-03-26T03:42:00.998Z,49.5161
2023-03-26T03:43:02.665Z,49.4819
2023-03-26T03:44:04.300Z,49.5321
2023-03-26T03:45:05.928Z,49.5068
2023-03-26T03:46:07.639Z,49.4872
2023-03-26T03:47:09.211Z,49.5210
2023-03-26T03:48:10.942Z,49.4650
2023-03-26T03:49:12.526Z,49.5117
2023-03-26T03:50:14.200Z,49.5530
2023-03-26T03:51:15.841Z,49.4696
2023-03-26T03:52:17.487Z,49.5392
2023-03-26T03:53:19.144Z,49.5134
2023-03-26T03:54:20.786Z,49.4901
2023-03-26T03:55:22.409Z,49.5141
2023-03-26T03:56:24.101Z,49.4779
2023-03-26T03:57:25.728Z,49.4716
2023-03-26T03:58:27.424Z,49.4456
2023-03-26T03:59:29.004Z,49.4372
2023-03-26T04:00:30.696Z,49.4526
2023-03-26T04:01:32.304Z,49.4636
2023-03-26T04:02:34.076Z,49.4826
2023-03-26T04:03:35.778Z,49.4828
2023-03-26T04:04:37.331Z,49.4759
2023-03-26T04:05:38.920Z,49.4537
2023-03-26T04:06:40.579Z,49.4327
2023-03-26T04:07:42.206Z,49.4017
2023-03-26T04:08:43.995Z,49.4666
2023-03-26T04:09:45.504Z,49.4530
2023-03-26T04:10:47.163Z,49.4810
2023-03-26T04:11:48.802Z,49.4305
2023-03-26T04:12:50.461Z,49.4078
2023-03-26T04:13:52.113Z,49.4212
2023-03-26T04:14:53.756Z,49.3746
2023-03-26T04:15:55.656Z,49.3405
2023-03-26T04:16:57.061Z,49.3744
2023-03-26T04:17:58.760Z,49.4177
2023-03-26T04:19:00.371Z,49.4278
2023-03-26T04:20:01.983Z,49.4612
2023-03-26T04:21:03.638Z,49.3921
2023-03-26T04:22:05.288Z,49.4485
2023-03-26T04:23:06.948Z,49.4718
2023-03-26T04:24:08.597Z,49.4596
2023-03-26T04:25:10.259Z,49.4364
2023-03-26T04:26:11.867Z,49.4831
2023-03-26T04:27:13.527Z,49.4879
2023-03-26T04:28:15.162Z,49.4449
2023-03-26T04:29:16.844Z,49.3938
2023-03-26T04:30:18.456Z,49.4440
2023-03-26T04:31:20.163Z,49.4760
2023-03-26T04:32:21.773Z,49.4443
2023-03-26T04:33:23.438Z,49.4252
2023-03-26T04:34:25.127Z,49.4467
2023-03-26T04:35:26.763Z,49.4570
2023-03-26T04:36:28.390Z,49.4016
2023-03-26T04:37:30.020Z,49.3966
2023-03-26T04:38:31.645Z,49.3940
2023-03-26T04:39:33.352Z,49.4259
2023-03-26T04:40:34.969Z,49.4016
2023-03-26T04:41:36.630Z,49.4556
2023-03-26T04:42:38.253Z,49.3508
2023-03-26T04:43:39.929Z,49.4087
2023-03-26T04:44:41.638Z,49.4145
2023-03-26T04:45:43.209Z,49.4359
2023-03-26T04:46:44.853Z,49.4879
2023-03-26T04:47:46.802Z,49.4607
2023-03-26T04:48:48.141Z,49.4938
2023-03-26T04:49:49.839Z,49.4746
2023-03-26T04:50:51.448Z,49.3960
2023-03-26T04:51:53.095Z,49.3866
2023-03-26T04:52:54.750Z,49.4904
2023-03-26T04:53:56.418Z,49.4658
2023-03-26T04:54:58.060Z,49.4858
2023-03-26T04:55:59.699Z,49.4898
2023-03-26T04:57:01.343Z,49.4878
2023-03-26T04:58:02.986Z,49.4558
2023-03-26T04:59:04.628Z,49.4378
2023-03-26T05:00:06.317Z,49.4388
2023-03-26T05:01:10.318Z,49.4325
2023-03-26T05:02:09.620Z,49.4544
2023-03-26T05:03:11.218Z,49.4608
2023-03-26T05:04:12.893Z,49.5034
2023-03-26T05:05:14.543Z,49.4478
2023-03-26T05:06:16.195Z,49.4400
2023-03-26T05:07:17.819Z,49.3804
2023-03-26T05:08:19.492Z,49.4146
2023-03-26T05:09:21.126Z,49.4854
2023-03-26T05:10:22.869Z,49.5190
2023-03-26T05:11:24.430Z,49.5424
2023-03-26T05:12:26.100Z,49.5809
2023-03-26T05:13:27.713Z,49.6201
2023-03-26T05:14:29.390Z,49.6226
2023-03-26T05:15:31.053Z,49.5846
2023-03-26T05:16:32.706Z,49.6165
2023-03-26T05:17:34.382Z,49.6002
2023-03-26T05:18:36.015Z,49.5711
2023-03-26T05:19:37.624Z,49.5512
2023-03-26T05:20:39.328Z,49.5332
2023-03-26T05:21:40.933Z,49.5062
2023-03-26T05:22:42.592Z,49.5107
2023-03-26T05:23:44.233Z,49.5324
2023-03-26T05:24:45.911Z,49.5319
2023-03-26T05:25:47.567Z,49.5400
2023-03-26T05:26:49.205Z,49.5652
2023-03-26T05:27:50.820Z,49.5710
2023-03-26T05:28:52.733Z,49.5276
2023-03-26T05:29:54.109Z,49.5880
2023-03-26T05:30:55.984Z,49.5905
2023-03-26T05:31:57.432Z,49.6363
2023-03-26T05:32:59.125Z,49.6910
2023-03-26T05:34:00.861Z,49.7036
2023-03-26T05:35:02.352Z,49.6996
2023-03-26T05:36:04.081Z,49.6667
2023-03-26T05:37:05.667Z,49.7267
2023-03-26T05:38:07.317Z,49.7221
2023-03-26T05:39:08.947Z,49.7275
2023-03-26T05:40:10.640Z,49.7062
2023-03-26T05:41:12.285Z,49.6878
2023-03-26T05:42:13.922Z,49.6640
2023-03-26T05:43:15.549Z,49.6579
2023-03-26T05:44:17.234Z,49.6763
2023-03-26T05:45:18.853Z,49.7137
2023-03-26T05:46:20.653Z,49.7218
2023-03-26T05:47:22.143Z,49.7219
2023-03-26T05:48:23.828Z,49.7237
2023-03-26T05:49:25.460Z,49.7188
2023-03-26T05:50:27.129Z,49.7526
2023-03-26T05:51:28.775Z,49.7765
2023-03-26T05:52:30.430Z,49.7868
2023-03-26T05:53:32.066Z,49.7843
2023-03-26T05:54:33.740Z,49.8090
2023-03-26T05:55:35.365Z,49.8526
2023-03-26T05:56:37.175Z,49.8793
2023-03-26T05:57:38.734Z,49.9701
2023-03-26T05:58:40.413Z,49.8948
2023-03-26T05:59:42.029Z,49.9019
2023-03-26T06:00:43.705Z,49.8758
2023-03-26T06:01:45.362Z,49.8704
2023-03-26T06:02:47.091Z,49.8791
2023-03-26T06:03:48.707Z,49.8755
2023-03-26T06:04:50.349Z,49.8682
2023-03-26T06:05:51.933Z,49.8676
2023-03-26T06:06:53.634Z,49.8822
2023-03-26T06:07:55.224Z,49.8865
2023-03-26T06:09:01.910Z,49.8968
2023-03-26T06:09:58.533Z,49.9245
2023-03-26T06:11:00.221Z,49.9592
2023-03-26T06:12:01.874Z,49.9070
2023-03-26T06:13:03.513Z,49.9170
2023-03-26T06:14:05.126Z,49.9315
2023-03-26T06:15:06.807Z,49.9383
2023-03-26T06:16:08.459Z,49.9082
2023-03-26T06:17:10.180Z,49.9093
2023-03-26T06:18:11.791Z,49.9387
2023-03-26T06:19:13.519Z,48.3422
2023-03-26T06:20:15.037Z,45.7383
2023-03-26T06:21:16.704Z,44.7241
2023-03-26T06:22:18.358Z,44.6836
2023-03-26T06:23:19.996Z,44.8469
2023-03-26T06:24:21.630Z,44.6998
2023-03-26T06:25:23.295Z,44.3731
2023-03-26T06:26:24.936Z,44.7355
2023-03-26T06:27:26.625Z,45.1315
2023-03-26T06:28:28.244Z,45.1070
2023-03-26T06:29:29.918Z,45.0105
2023-03-26T06:30:31.551Z,45.1489
2023-03-26T06:31:33.257Z,45.2200
2023-03-26T06:32:34.913Z,45.2521
2023-03-26T06:33:36.517Z,45.5247
2023-03-26T06:34:38.146Z,46.0240
2023-03-26T06:35:39.855Z,45.7399
2023-03-26T06:36:41.465Z,45.4219
2023-03-26T06:37:43.146Z,45.2931
2023-03-26T06:38:44.770Z,45.3441
2023-03-26T06:39:46.429Z,45.0050
2023-03-26T06:40:48.069Z,45.0511
2023-03-26T06:41:49.730Z,44.9793
2023-03-26T06:43:08.643Z,45.0951
2023-03-26T06:43:53.048Z,45.0572
2023-03-26T06:44:54.669Z,45.9962
2023-03-26T06:45:56.357Z,46.0315
2023-03-26T06:46:58.046Z,46.3542
2023-03-26T06:47:59.734Z,46.3386
2023-03-26T06:49:01.283Z,46.6817
2023-03-26T06:50:02.977Z,46.8759
2023-03-26T06:51:04.608Z,47.1227
2023-03-26T06:52:06.274Z,47.8575
2023-03-26T06:53:07.913Z,47.3703
2023-03-26T06:54:09.563Z,47.3013
2023-03-26T06:55:11.220Z,46.4196
2023-03-26T06:56:12.873Z,46.0304
2023-03-26T06:57:14.527Z,46.0666
2023-03-26T06:58:16.210Z,46.3122
2023-03-26T06:59:17.846Z,46.0304
2023-03-26T07:00:19.485Z,45.9467
2023-03-26T07:01:21.165Z,45.9894
2023-03-26T07:02:22.819Z,46.1256
2023-03-26T07:03:24.433Z,46.1530
2023-03-26T07:04:26.110Z,46.1264
2023-03-26T07:05:27.781Z,46.1733
2023-03-26T07:06:29.391Z,46.2608
2023-03-26T07:07:31.047Z,46.3361
2023-03-26T07:08:32.720Z,46.3807
2023-03-26T07:09:34.360Z,46.4952
2023-03-26T07:10:35.987Z,46.6255
2023-03-26T07:11:37.656Z,46.7130
2023-03-26T07:12:39.292Z,46.8050
2023-03-26T07:13:40.978Z,46.9397
2023-03-26T07:14:42.601Z,46.9426
2023-03-26T07:15:44.282Z,47.0835
2023-03-26T07:16:45.903Z,47.4520
2023-03-26T07:17:47.577Z,47.8777
2023-03-26T07:18:49.452Z,48.0739
2023-03-26T07:19:50.874Z,48.3665
2023-03-26T07:20:52.605Z,48.3288
2023-03-26T07:21:54.177Z,48.3072
2023-03-26T07:22:55.801Z,48.2024
2023-03-26T07:23:57.493Z,48.3443
2023-03-26T07:24:59.111Z,48.4781
2023-03-26T07:26:00.786Z,48.5386
2023-03-26T07:27:02.429Z,48.5516
2023-03-26T07:28:04.088Z,48.5303
2023-03-26T07:29:05.728Z,48.9367
2023-03-26T07:30:07.396Z,49.4940
2023-03-26T07:31:09.015Z,49.8469
2023-03-26T07:32:10.680Z,50.0484
2023-03-26T07:33:12.314Z,50.1616
2023-03-26T07:34:14.011Z,49.9938
2023-03-26T07:35:15.629Z,50.1092
2023-03-26T07:36:17.304Z,50.4365
2023-03-26T07:37:18.925Z,50.4277
2023-03-26T07:38:20.592Z,50.1805
2023-03-26T07:39:22.250Z,49.9360
2023-03-26T07:40:23.900Z,49.6983
2023-03-26T07:41:25.537Z,49.6897
2023-03-26T07:42:27.223Z,49.8613
2023-03-26T07:43:28.852Z,49.7954
2023-03-26T07:44:30.525Z,49.6618
2023-03-26T07:45:32.165Z,49.7550
2023-03-26T07:46:33.800Z,49.8412
2023-03-26T07:47:35.478Z,49.8346
2023-03-26T07:48:37.104Z,49.8131
2023-03-26T07:49:38.758Z,50.1093
2023-03-26T07:50:40.410Z,50.6031
2023-03-26T07:51:42.048Z,50.5318
2023-03-26T07:52:43.708Z,50.5681
2023-03-26T07:53:45.341Z,50.9141
2023-03-26T07:54:47.048Z,51.1922
2023-03-26T07:55:48.663Z,51.3240
2023-03-26T07:56:50.386Z,51.2860
2023-03-26T07:57:51.936Z,51.0801
2023-03-26T07:58:53.615Z,51.2932
2023-03-26T07:59:55.266Z,51.1283
2023-03-26T08:00:57.125Z,50.9179
2023-03-26T08:01:58.543Z,51.1469
2023-03-26T08:03:00.286Z,51.2846
2023-03-26T08:04:23.424Z,50.9087
2023-03-26T08:05:03.597Z,50.5055
2023-03-26T08:06:05.134Z,50.3411
2023-03-26T08:07:06.803Z,50.5407
2023-03-26T08:08:08.443Z,50.4994
2023-03-26T08:09:10.109Z,50.3609
2023-03-26T08:10:12.016Z,50.5993
2023-03-26T08:11:13.422Z,50.7710
2023-03-26T08:12:15.039Z,50.9628
2023-03-26T08:13:16.732Z,51.2834
2023-03-26T08:14:18.336Z,51.3058
2023-03-26T08:15:20.037Z,51.2322
2023-03-26T08:16:21.666Z,51.2125
2023-03-26T08:17:23.346Z,51.4127
2023-03-26T08:18:24.942Z,51.3922
2023-03-26T08:19:26.612Z,51.5202
2023-03-26T08:20:28.339Z,51.1684
2023-03-26T08:21:29.918Z,50.8135
2023-03-26T08:22:31.591Z,50.7632
2023-03-26T08:23:33.220Z,51.0336
2023-03-26T08:24:34.893Z,51.2034
2023-03-26T08:25:38.001Z,51.1134
2023-03-26T08:26:38.146Z,51.1396
2023-03-26T08:27:39.809Z,51.2427
2023-03-26T08:28:41.471Z,51.1053
2023-03-26T08:29:43.133Z,51.1088
2023-03-26T08:30:44.812Z,51.2527
2023-03-26T08:31:46.411Z,51.2421
2023-03-26T08:32:48.132Z,51.4096
2023-03-26T08:33:49.731Z,51.4313
2023-03-26T08:34:51.402Z,51.4321
2023-03-26T08:35:53.132Z,51.4604
2023-03-26T08:36:54.721Z,51.4900
2023-03-26T08:37:56.332Z,51.5352
2023-03-26T08:38:58.001Z,51.4731
2023-03-26T08:39:59.643Z,51.4819
2023-03-26T08:41:01.332Z,51.4995
2023-03-26T08:42:02.931Z,51.4667
2023-03-26T08:43:04.602Z,51.4213
2023-03-26T08:44:06.260Z,51.4005
2023-03-26T08:45:07.927Z,51.4187
2023-03-26T08:46:09.597Z,51.4267
2023-03-26T08:47:11.204Z,51.4033
2023-03-26T08:48:12.844Z,51.4889
2023-03-26T08:49:14.501Z,51.5085
2023-03-26T08:50:16.238Z,51.5344
2023-03-26T08:51:17.836Z,51.4988
2023-03-26T08:52:19.446Z,51.4915
2023-03-26T08:53:21.116Z,51.5160
2023-03-26T08:54:22.750Z,51.5921
2023-03-26T08:55:24.423Z,51.6064
2023-03-26T08:56:26.098Z,51.5688
2023-03-26T08:57:27.716Z,51.5428
2023-03-26T08:58:29.352Z,51.5316
2023-03-26T08:59:31.029Z,51.5221
2023-03-26T09:00:32.663Z,51.4871
2023-03-26T09:01:34.393Z,51.5173
2023-03-26T09:02:36.030Z,51.4706
2023-03-26T09:03:37.625Z,51.5139
2023-03-26T09:04:39.272Z,51.5556
2023-03-26T09:05:40.958Z,51.4553
2023-03-26T09:06:42.646Z,51.4270
2023-03-26T09:07:44.293Z,51.4877
2023-03-26T09:08:54.212Z,51.5193
2023-03-26T09:09:47.505Z,51.4673
2023-03-26T09:10:49.154Z,51.4677
2023-03-26T09:11:50.823Z,51.4756
2023-03-26T09:12:52.440Z,51.5082
2023-03-26T09:13:54.132Z,51.4705
2023-03-26T09:14:55.757Z,51.4301
2023-03-26T09:15:57.511Z,51.4238
2023-03-26T09:16:59.080Z,51.4234
2023-03-26T09:18:00.762Z,51.3936
2023-03-26T09:19:02.345Z,51.3633
2023-03-26T09:20:04.026Z,51.3620
2023-03-26T09:21:05.673Z,51.4134
2023-03-26T09:22:07.380Z,51.4086
2023-03-26T09:23:08.960Z,51.3688
2023-03-26T09:24:10.624Z,51.4124
2023-03-26T09:25:12.276Z,51.3803
2023-03-26T09:26:13.929Z,51.3909
2023-03-26T09:27:15.589Z,51.4616
2023-03-26T09:28:17.225Z,51.4347
2023-03-26T09:29:18.855Z,51.4337
2023-03-26T09:30:20.505Z,51.4347
2023-03-26T09:31:22.202Z,51.3902
2023-03-26T09:32:23.942Z,51.4006
2023-03-26T09:33:25.477Z,51.4144
2023-03-26T09:34:27.144Z,51.4263
2023-03-26T09:35:28.764Z,51.3368
2023-03-26T09:36:30.472Z,51.3215
2023-03-26T09:37:32.083Z,51.3988
2023-03-26T09:38:33.741Z,51.4146
2023-03-26T09:39:35.363Z,51.4640
2023-03-26T09:40:37.035Z,51.4925
2023-03-26T09:41:38.658Z,51.7043
2023-03-26T09:42:40.359Z,52.3993
2023-03-26T09:43:41.996Z,51.2299
2023-03-26T09:44:43.628Z,51.7687
2023-03-26T09:45:45.275Z,52.9725
2023-03-26T09:46:46.936Z,52.6828
2023-03-26T09:47:48.648Z,52.2590
2023-03-26T09:48:50.237Z,52.0544
2023-03-26T09:49:51.865Z,52.0939
2023-03-26T09:50:53.719Z,52.2011
2023-03-26T09:51:55.146Z,52.2116
2023-03-26T09:52:56.845Z,52.2319
2023-03-26T09:53:58.447Z,52.1867
2023-03-26T09:55:00.162Z,52.1267
2023-03-26T09:56:01.772Z,52.1142
2023-03-26T09:57:03.465Z,52.0994
2023-03-26T09:58:05.134Z,52.1055
2023-03-26T09:59:06.854Z,52.1186
2023-03-26T10:00:08.423Z,52.1162
2023-03-26T10:01:10.144Z,52.1260
2023-03-26T10:02:11.717Z,52.0150
2023-03-26T10:03:13.465Z,49.9120
2023-03-26T10:04:15.024Z,46.9615
2023-03-26T10:05:16.690Z,45.9332
2023-03-26T10:06:18.313Z,45.8570
2023-03-26T10:07:19.984Z,45.5853
2023-03-26T10:08:21.641Z,45.3990
2023-03-26T10:09:23.290Z,45.6282
2023-03-26T10:10:24.906Z,45.1848
2023-03-26T10:11:26.588Z,45.1803
2023-03-26T10:12:28.222Z,45.7489
2023-03-26T10:13:29.928Z,45.9460
2023-03-26T10:14:31.532Z,45.9300
2023-03-26T10:15:33.198Z,45.8797
2023-03-26T10:16:34.880Z,45.8951
2023-03-26T10:17:37.179Z,45.9727
2023-03-26T10:18:38.166Z,46.0050
2023-03-26T10:19:39.808Z,46.0418
2023-03-26T10:20:41.434Z,46.1279
2023-03-26T10:21:43.096Z,46.2298
2023-03-26T10:22:44.742Z,46.3323
2023-03-26T10:23:46.425Z,46.4374
2023-03-26T10:24:48.044Z,46.4753
2023-03-26T10:25:49.745Z,46.5521
2023-03-26T10:27:08.589Z,46.6479
2023-03-26T10:27:53.014Z,46.7298
2023-03-26T10:28:54.677Z,46.7991
2023-03-26T10:29:56.325Z,46.8988
2023-03-26T10:30:58.118Z,46.9893
2023-03-26T10:31:59.616Z,47.0943
2023-03-26T10:33:01.324Z,47.1941
2023-03-26T10:34:02.959Z,47.2028
2023-03-26T10:35:04.555Z,47.3119
2023-03-26T10:36:06.251Z,47.3305
2023-03-26T10:37:07.851Z,47.3911
2023-03-26T10:38:09.527Z,47.4724
2023-03-26T10:39:11.183Z,47.4636
2023-03-26T10:40:12.830Z,47.4660
2023-03-26T10:41:14.491Z,47.5264
2023-03-26T10:42:16.123Z,47.6027
2023-03-26T10:43:17.763Z,47.6145
2023-03-26T10:44:19.508Z,47.7108
2023-03-26T10:45:21.096Z,47.7728
2023-03-26T10:46:22.772Z,47.8119
2023-03-26T10:47:24.432Z,47.8914
2023-03-26T10:48:26.054Z,47.9696
2023-03-26T10:49:27.750Z,48.0034
2023-03-26T10:50:29.362Z,48.0345
2023-03-26T10:51:30.972Z,48.1035
2023-03-26T10:52:32.670Z,48.0948
2023-03-26T10:53:34.295Z,48.1023
2023-03-26T10:54:35.999Z,48.1601
2023-03-26T10:55:37.596Z,48.2160
2023-03-26T10:56:39.290Z,48.2627
2023-03-26T10:57:40.896Z,48.3137
2023-03-26T10:58:48.590Z,48.3171
2023-03-26T10:59:44.247Z,48.4097
2023-03-26T11:00:45.892Z,48.4559
2023-03-26T11:01:47.524Z,48.4799
2023-03-26T11:02:49.225Z,48.5006
2023-03-26T11:03:50.827Z,48.5557
2023-03-26T11:04:52.517Z,48.5830
2023-03-26T11:05:54.191Z,48.6154
2023-03-26T11:06:55.800Z,48.6634
2023-03-26T11:07:57.430Z,48.7966
2023-03-26T11:08:59.136Z,48.8856
2023-03-26T11:10:00.746Z,49.1144
2023-03-26T11:11:02.395Z,49.4023
2023-03-26T11:12:26.223Z,49.6764
2023-03-26T11:13:05.691Z,49.8283
2023-03-26T11:14:07.339Z,50.0359
2023-03-26T11:15:09.106Z,49.8681
2023-03-26T11:16:10.642Z,49.8873
2023-03-26T11:17:14.915Z,50.1955
2023-03-26T11:18:13.963Z,50.1664
2023-03-26T11:19:15.591Z,50.3837
2023-03-26T11:20:17.292Z,50.3839
2023-03-26T11:21:20.635Z,50.1643
2023-03-26T11:22:20.527Z,50.1539
2023-03-26T11:23:22.211Z,50.0757
2023-03-26T11:24:23.812Z,50.0568
2023-03-26T11:25:25.532Z,50.0574
2023-03-26T11:26:27.137Z,50.0615
2023-03-26T11:27:28.792Z,50.1575
2023-03-26T11:28:30.446Z,50.3743
2023-03-26T11:29:33.494Z,50.7210
2023-03-26T11:30:33.767Z,50.8294
2023-03-26T11:31:35.433Z,50.7113
2023-03-26T11:32:37.070Z,50.6098
2023-03-26T11:33:38.689Z,50.5057
2023-03-26T11:34:40.347Z,50.3666
2023-03-26T11:35:42.013Z,50.4459
2023-03-26T11:36:43.630Z,50.5203
2023-03-26T11:37:45.308Z,50.5439
2023-03-26T11:38:46.965Z,50.5886
2023-03-26T11:39:48.584Z,50.6411
2023-03-26T11:40:50.249Z,50.7254
2023-03-26T11:41:51.901Z,50.9147
2023-03-26T11:42:53.540Z,51.0013
2023-03-26T11:43:55.217Z,50.9023
2023-03-26T11:44:56.861Z,50.7512
2023-03-26T11:45:58.550Z,50.6616
2023-03-26T11:47:00.126Z,50.6202
2023-03-26T11:48:01.854Z,50.6220
2023-03-26T11:49:03.407Z,50.6267
2023-03-26T11:50:05.143Z,50.6454
2023-03-26T11:51:06.783Z,50.6391
2023-03-26T11:52:08.393Z,50.6196
2023-03-26T11:53:10.039Z,50.5931
2023-03-26T11:54:11.714Z,50.5944
2023-03-26T11:55:13.343Z,50.6450
2023-03-26T11:56:15.174Z,50.6709
2023-03-26T11:57:16.694Z,50.6501
2023-03-26T11:58:18.307Z,50.6781
2023-03-26T11:59:21.650Z,50.6506
2023-03-26T12:00:21.607Z,50.6055
2023-03-26T12:01:23.250Z,50.6379
2023-03-26T12:02:25.076Z,50.6593
2023-03-26T12:03:26.551Z,50.6857
2023-03-26T12:04:30.604Z,50.6915
2023-03-26T12:05:29.840Z,50.7142
2023-03-26T12:06:31.536Z,50.7122
2023-03-26T12:07:33.146Z,50.6557
2023-03-26T12:08:34.814Z,50.6681
2023-03-26T12:09:36.444Z,50.6324
2023-03-26T12:10:38.543Z,50.5957
2023-03-26T12:11:39.771Z,50.5902
2023-03-26T12:12:41.424Z,50.5762
2023-03-26T12:13:43.052Z,50.5463
2023-03-26T12:14:44.703Z,50.5574
2023-03-26T12:15:46.350Z,50.5445
2023-03-26T12:16:48.060Z,50.5322
2023-03-26T12:17:49.651Z,50.5220
2023-03-26T12:18:51.307Z,50.5301
2023-03-26T12:19:52.947Z,50.5620
2023-03-26T12:20:54.734Z,50.5397
2023-03-26T12:21:56.265Z,50.5138
2023-03-26T12:22:57.913Z,50.5510
2023-03-26T12:23:59.548Z,50.5510
2023-03-26T12:25:01.200Z,50.5711